createdAt,value
2019-01-16T00:00:10.646Z,101986.70
2019-01-16T00:02:11.265Z,101971.27
2019-01-16T00:04:14.100Z,101942.58
2019-01-16T00:06:07.808Z,101909.55
2019-01-16T00:08:04.843Z,101892.74
2019-01-16T00:10:03.096Z,101864.05
2019-01-16T00:11:57.559Z,101852.67
2019-01-16T00:13:57.726Z,101842.12
2019-01-16T00:16:04.269Z,101824.80
2019-01-16T00:17:59.568Z,101818.03
2019-01-16T00:20:02.474Z,101808.86
2019-01-16T00:22:03.423Z,101806.96
2019-01-16T00:23:56.243Z,101795.86
2019-01-16T00:25:49.617Z,101782.02
2019-01-16T00:27:43.662Z,101745.52
2019-01-16T00:29:36.318Z,101713.55
2019-01-16T00:31:43.094Z,101668.38
2019-01-16T00:33:35.847Z,101621.01
2019-01-16T00:35:36.228Z,101562.83
2019-01-16T00:37:33.378Z,101530.06
2019-01-16T00:39:26.698Z,101499.75
2019-01-16T00:41:12.919Z,101477.02
2019-01-16T00:43:19.687Z,101402.33
2019-01-16T00:45:16.729Z,101379.05
2019-01-16T00:47:09.258Z,101315.75
2019-01-16T00:48:58.818Z,101258.61
2019-01-16T00:50:55.232Z,101094.08
2019-01-16T00:52:49.251Z,98833.73
2019-01-16T00:54:46.898Z,98726.14
2019-01-16T00:56:50.163Z,98679.59
2019-01-16T00:58:56.392Z,98655.47
2019-01-16T01:00:56.862Z,98634.97
2019-01-16T01:02:52.979Z,98615.69
2019-01-16T01:04:55.979Z,98610.84
2019-01-16T01:07:05.679Z,98599.95
2019-01-16T01:09:10.567Z,98596.32
2019-01-16T01:11:08.761Z,98577.83
2019-01-16T01:13:04.163Z,98579.39
2019-01-16T01:14:57.441Z,98577.83
2019-01-16T01:16:44.877Z,98575.47
2019-01-16T01:18:41.048Z,98562.87
2019-01-16T01:20:45.963Z,98566.71
2019-01-16T01:22:43.375Z,98602.87
2019-01-16T01:24:36.404Z,98592.62
2019-01-16T01:26:39.604Z,98590.48
2019-01-16T01:28:33.553Z,98576.17
2019-01-16T01:30:28.210Z,98572.69
2019-01-16T01:32:31.068Z,98569.50
2019-01-16T01:34:22.445Z,98554.75
2019-01-16T01:36:15.105Z,98545.59
2019-01-16T01:38:07.809Z,98533.28
2019-01-16T01:40:14.155Z,98518.11
2019-01-16T01:42:11.134Z,98500.83
2019-01-16T01:43:56.629Z,98481.03
2019-01-16T01:46:09.509Z,98483.73
2019-01-16T01:48:22.224Z,98483.64
2019-01-16T01:50:15.608Z,98463.00
2019-01-16T01:52:17.437Z,98451.36
2019-01-16T01:54:03.116Z,98448.30
2019-01-16T01:56:06.250Z,98432.83
2019-01-16T01:58:20.396Z,98434.39
2019-01-16T02:00:27.464Z,98432.42
2019-01-16T02:02:15.366Z,98427.02
2019-01-16T02:04:24.842Z,98436.38
2019-01-16T02:06:25.365Z,98436.13
2019-01-16T02:08:22.626Z,98432.25
2019-01-16T02:10:13.842Z,98423.36
2019-01-16T02:12:20.298Z,98426.66
2019-01-16T02:14:16.998Z,98422.22
2019-01-16T02:16:09.726Z,98415.67
2019-01-16T02:17:54.564Z,98419.38
2019-01-16T02:19:35.319Z,98414.18
2019-01-16T02:21:21.163Z,98415.74
2019-01-16T02:23:13.105Z,98413.25
2019-01-16T02:25:19.140Z,98414.03
2019-01-16T02:27:19.489Z,98407.48
2019-01-16T02:29:13.489Z,98389.69
2019-01-16T02:31:16.509Z,98379.08
2019-01-16T02:33:22.352Z,98380.44
2019-01-16T02:35:24.022Z,98372.17
2019-01-16T02:37:23.865Z,98368.52
2019-01-16T02:39:10.587Z,98362.92
2019-01-16T02:41:14.026Z,98360.40
2019-01-16T02:43:01.899Z,98363.85
2019-01-16T02:44:54.566Z,98346.13
2019-01-16T02:46:47.205Z,98344.17
2019-01-16T02:48:37.932Z,98322.91
2019-01-16T02:50:29.289Z,98334.91
2019-01-16T02:52:22.003Z,98322.73
2019-01-16T02:54:15.035Z,98327.01
2019-01-16T02:56:10.732Z,98320.61
2019-01-16T02:58:14.128Z,98324.73
2019-01-16T02:59:57.987Z,98318.81
2019-01-16T03:01:54.822Z,98310.84
2019-01-16T03:03:43.383Z,98312.41
2019-01-16T03:05:36.420Z,98306.21
2019-01-16T03:07:30.598Z,98304.86
2019-01-16T03:09:26.710Z,98304.50
2019-01-16T03:11:23.827Z,98296.17
2019-01-16T03:13:12.144Z,98294.40
2019-01-16T03:15:07.586Z,98290.41
2019-01-16T03:16:54.978Z,98288.20
2019-01-16T03:19:04.527Z,98268.48
2019-01-16T03:20:51.049Z,98279.16
2019-01-16T03:22:49.125Z,98265.57
2019-01-16T03:24:48.917Z,98273.69
2019-01-16T03:26:30.832Z,98259.02
2019-01-16T03:28:24.906Z,98251.69
2019-01-16T03:30:17.998Z,98252.41
2019-01-16T03:32:10.951Z,98251.33
2019-01-16T03:34:08.134Z,98238.16
2019-01-16T03:36:03.648Z,98241.80
2019-01-16T03:37:58.198Z,98228.63
2019-01-16T03:40:07.113Z,98220.16
2019-01-16T03:42:18.729Z,98226.77
2019-01-16T03:44:17.725Z,98211.47
2019-01-16T03:46:28.308Z,98204.49
2019-01-16T03:48:28.784Z,98203.92
2019-01-16T03:50:23.792Z,98206.42
2019-01-16T03:52:13.969Z,98192.53
2019-01-16T03:54:06.307Z,98185.20
2019-01-16T03:56:09.964Z,98183.61
2019-01-16T03:58:02.274Z,98179.58
2019-01-16T03:59:47.340Z,98174.73
2019-01-16T04:01:40.343Z,98169.30
2019-01-16T04:03:47.139Z,98173.36
2019-01-16T04:05:38.864Z,98163.34
2019-01-16T04:07:43.175Z,98154.45
2019-01-16T04:09:39.208Z,98152.50
2019-01-16T04:11:30.112Z,98134.73
2019-01-16T04:13:27.407Z,98127.38
2019-01-16T04:15:40.009Z,98116.77
2019-01-16T04:17:46.104Z,98110.00
2019-01-16T04:19:43.118Z,98098.19
2019-01-16T04:21:46.013Z,98109.38
2019-01-16T04:23:38.437Z,98100.14
2019-01-16T04:25:31.320Z,98089.14
2019-01-16T04:27:31.298Z,98084.69
2019-01-16T04:29:26.402Z,98079.63
2019-01-16T04:31:19.434Z,98070.73
2019-01-16T04:33:13.543Z,98060.27
2019-01-16T04:35:10.490Z,98063.97
2019-01-16T04:37:07.417Z,98057.78
2019-01-16T04:39:04.442Z,98052.00
2019-01-16T04:40:49.892Z,98052.21
2019-01-16T04:42:46.966Z,98039.05
2019-01-16T04:44:39.390Z,98031.51
2019-01-16T04:46:33.918Z,98027.25
2019-01-16T04:48:27.858Z,98034.01
2019-01-16T04:50:34.674Z,98031.92
2019-01-16T04:52:23.250Z,98027.81
2019-01-16T04:54:18.901Z,98019.91
2019-01-16T04:56:13.931Z,98025.84
2019-01-16T04:58:26.784Z,98015.39
2019-01-16T05:00:39.125Z,98023.14
2019-01-16T05:02:44.096Z,98013.83
2019-01-16T05:04:27.498Z,98013.05
2019-01-16T05:06:30.332Z,98016.75
2019-01-16T05:08:36.255Z,98015.19
2019-01-16T05:10:42.377Z,98003.57
2019-01-16T05:12:41.729Z,98001.07
2019-01-16T05:14:31.944Z,98000.50
2019-01-16T05:16:21.743Z,97992.34
2019-01-16T05:18:21.829Z,97988.08
2019-01-16T05:20:16.643Z,97987.50
2019-01-16T05:22:18.749Z,97980.01
2019-01-16T05:24:11.743Z,97967.22
2019-01-16T05:26:05.751Z,97969.61
2019-01-16T05:28:00.013Z,97949.77
2019-01-16T05:30:09.181Z,97952.30
2019-01-16T05:31:51.697Z,97943.41
2019-01-16T05:33:48.762Z,97936.70
2019-01-16T05:35:41.618Z,97943.66
2019-01-16T05:37:40.695Z,97942.68
2019-01-16T05:39:33.416Z,97933.79
2019-01-16T05:41:39.371Z,97928.37
2019-01-16T05:43:40.004Z,97927.55
2019-01-16T05:45:42.231Z,97924.69
2019-01-16T05:47:31.412Z,97922.92
2019-01-16T05:49:30.794Z,97920.94
2019-01-16T05:51:23.212Z,97930.41
2019-01-16T05:53:22.901Z,97912.42
2019-01-16T05:55:15.596Z,97921.31
2019-01-16T05:57:24.694Z,97916.11
2019-01-16T05:59:33.856Z,97917.88
2019-01-16T06:01:33.845Z,97917.50
2019-01-16T06:03:40.335Z,97910.75
2019-01-16T06:05:52.624Z,97908.42
2019-01-16T06:07:42.259Z,97909.72
2019-01-16T06:09:44.966Z,97904.63
2019-01-16T06:11:56.800Z,97916.47
2019-01-16T06:13:42.495Z,97911.44
2019-01-16T06:15:42.296Z,97912.05
2019-01-16T06:17:45.989Z,97912.99
2019-01-16T06:19:34.439Z,97904.84
2019-01-16T06:21:24.950Z,97902.91
2019-01-16T06:23:19.443Z,97910.24
2019-01-16T06:25:17.772Z,97914.09
2019-01-16T06:27:14.911Z,97921.27
2019-01-16T06:29:24.740Z,97907.69
2019-01-16T06:31:18.776Z,97917.05
2019-01-16T06:33:12.973Z,97917.94
2019-01-16T06:35:05.904Z,97915.63
2019-01-16T06:37:09.856Z,97913.50
2019-01-16T06:39:13.217Z,97915.90
2019-01-16T06:41:06.315Z,97906.17
2019-01-16T06:42:53.576Z,97910.61
2019-01-16T06:44:50.842Z,97908.69
2019-01-16T06:46:48.720Z,97904.20
2019-01-16T06:48:41.455Z,97908.09
2019-01-16T06:50:35.443Z,97901.08
2019-01-16T06:52:25.199Z,97906.70
2019-01-16T06:54:25.406Z,97908.78
2019-01-16T06:56:19.564Z,97909.40
2019-01-16T06:58:14.717Z,97906.44
2019-01-16T07:00:15.212Z,97909.49
2019-01-16T07:02:07.880Z,97913.75
2019-01-16T07:04:02.142Z,97909.49
2019-01-16T07:05:59.130Z,97909.12
2019-01-16T07:07:45.799Z,97907.36
2019-01-16T07:09:43.165Z,97907.31
2019-01-16T07:11:30.597Z,97907.16
2019-01-16T07:13:27.383Z,97912.92
2019-01-16T07:15:33.589Z,97910.59
2019-01-16T07:17:23.631Z,97907.89
2019-01-16T07:19:21.233Z,97903.00
2019-01-16T07:21:15.051Z,97902.64
2019-01-16T07:23:12.106Z,97901.18
2019-01-16T07:25:00.983Z,97900.81
2019-01-16T07:26:47.271Z,97887.62
2019-01-16T07:28:41.183Z,97891.10
2019-01-16T07:30:44.220Z,97889.13
2019-01-16T07:32:44.249Z,97887.55
2019-01-16T07:34:27.878Z,97885.22
2019-01-16T07:36:23.610Z,97892.17
2019-01-16T07:38:16.332Z,97894.88
2019-01-16T07:40:22.061Z,97886.16
2019-01-16T07:42:17.511Z,97887.55
2019-01-16T07:44:11.530Z,97874.05
2019-01-16T07:46:04.524Z,97877.11
2019-01-16T07:47:57.572Z,97885.16
2019-01-16T07:49:53.466Z,97877.77
2019-01-16T07:51:39.576Z,97882.63
2019-01-16T07:53:50.474Z,97893.64
2019-01-16T07:55:43.215Z,97889.79
2019-01-16T07:57:45.326Z,97884.34
2019-01-16T07:59:43.707Z,97884.13
2019-01-16T08:01:32.666Z,97886.31
2019-01-16T08:03:44.996Z,97883.20
2019-01-16T08:05:48.138Z,97878.57
2019-01-16T08:07:56.041Z,97884.52
2019-01-16T08:09:52.869Z,97878.52
2019-01-16T08:12:08.180Z,97877.02
2019-01-16T08:14:21.565Z,97872.23
2019-01-16T08:16:28.762Z,97875.50
2019-01-16T08:18:39.049Z,97872.84
2019-01-16T08:20:36.051Z,97873.38
2019-01-16T08:22:33.150Z,97867.19
2019-01-16T08:24:47.179Z,97880.70
2019-01-16T08:26:50.705Z,97880.34
2019-01-16T08:28:56.793Z,97881.73
2019-01-16T08:30:53.174Z,97878.73
2019-01-16T08:32:42.060Z,97866.57
2019-01-16T08:34:39.832Z,97873.33
2019-01-16T08:36:50.218Z,97873.09
2019-01-16T08:38:42.901Z,97865.20
2019-01-16T08:40:41.930Z,97862.70
2019-01-16T08:42:58.420Z,97879.72
2019-01-16T08:45:05.173Z,97879.64
2019-01-16T08:46:59.687Z,97878.30
2019-01-16T08:48:56.663Z,97876.06
2019-01-16T08:50:49.393Z,97877.41
2019-01-16T08:52:46.185Z,97876.32
2019-01-16T08:54:48.007Z,97877.55
2019-01-16T08:56:40.732Z,97875.00
2019-01-16T08:58:37.518Z,97866.37
2019-01-16T09:00:38.463Z,97862.33
2019-01-16T09:02:34.738Z,97857.86
2019-01-16T09:04:28.044Z,97854.44
2019-01-16T09:06:30.781Z,97855.21
2019-01-16T09:08:55.506Z,97857.50
2019-01-16T09:10:53.616Z,97851.42
2019-01-16T09:12:49.864Z,97844.00
2019-01-16T09:14:57.851Z,97843.08
2019-01-16T09:16:53.178Z,97835.89
2019-01-16T09:18:42.284Z,97836.78
2019-01-16T09:20:43.724Z,97836.05
2019-01-16T09:22:41.390Z,97843.06
2019-01-16T09:24:47.717Z,97831.74
2019-01-16T09:27:02.125Z,97826.39
2019-01-16T09:29:11.029Z,97816.31
2019-01-16T09:31:08.268Z,97801.15
2019-01-16T09:33:11.836Z,97799.80
2019-01-16T09:34:59.831Z,97796.89
2019-01-16T09:36:55.744Z,97796.16
2019-01-16T09:38:50.853Z,97797.87
2019-01-16T09:40:36.665Z,97798.08
2019-01-16T09:42:29.718Z,97795.03
2019-01-16T09:44:22.621Z,97794.09
2019-01-16T09:46:22.842Z,97790.97
2019-01-16T09:48:19.211Z,97786.71
2019-01-16T09:50:12.520Z,97780.58
2019-01-16T09:52:24.547Z,97774.97
2019-01-16T09:54:21.658Z,97772.02
2019-01-16T09:56:16.248Z,97757.62
2019-01-16T09:58:10.456Z,97764.18
2019-01-16T10:00:15.260Z,97762.47
2019-01-16T10:02:18.665Z,97761.42
2019-01-16T10:04:16.310Z,97758.62
2019-01-16T10:06:16.633Z,97754.41
2019-01-16T10:08:14.395Z,97754.94
2019-01-16T10:10:08.736Z,97747.34
2019-01-16T10:12:05.888Z,97745.52
2019-01-16T10:14:11.319Z,97737.16
2019-01-16T10:16:15.003Z,97725.70
2019-01-16T10:18:21.913Z,97722.09
2019-01-16T10:20:19.388Z,97724.23
2019-01-16T10:22:13.694Z,97720.89
2019-01-16T10:24:21.189Z,97717.77
2019-01-16T10:26:19.800Z,97711.03
2019-01-16T10:28:20.040Z,97679.31
2019-01-16T10:30:13.409Z,97681.64
2019-01-16T10:32:10.554Z,97673.17
2019-01-16T10:34:11.865Z,97667.39
2019-01-16T10:36:04.704Z,97651.52
2019-01-16T10:37:57.715Z,97635.92
2019-01-16T10:39:52.964Z,97636.13
2019-01-16T10:41:55.076Z,97623.73
2019-01-16T10:43:55.555Z,97619.92
2019-01-16T10:45:53.372Z,97604.62
2019-01-16T10:47:59.903Z,97597.88
2019-01-16T10:49:52.962Z,97604.86
2019-01-16T10:52:00.420Z,97600.03
2019-01-16T10:53:54.719Z,97592.67
2019-01-16T10:55:56.095Z,97592.55
2019-01-16T10:57:50.823Z,97588.42
2019-01-16T10:59:49.761Z,97580.76
2019-01-16T11:01:48.034Z,97577.92
2019-01-16T11:03:41.249Z,97576.95
2019-01-16T11:05:37.396Z,97576.06
2019-01-16T11:07:41.090Z,97572.14
2019-01-16T11:09:38.665Z,97574.20
2019-01-16T11:11:58.595Z,97563.67
2019-01-16T11:13:58.611Z,97590.91
2019-01-16T11:15:52.820Z,97595.61
2019-01-16T11:17:51.715Z,97571.84
2019-01-16T11:19:51.694Z,97571.27
2019-01-16T11:22:02.692Z,97575.83
2019-01-16T11:24:12.461Z,97576.06
2019-01-16T11:26:09.276Z,97582.48
2019-01-16T11:28:20.123Z,97571.07
2019-01-16T11:30:15.434Z,97585.95
2019-01-16T11:32:16.317Z,97567.22
2019-01-16T11:34:08.892Z,97574.92
2019-01-16T11:36:24.230Z,97570.56
2019-01-16T11:38:24.750Z,97565.50
2019-01-16T11:40:31.662Z,97569.55
2019-01-16T11:42:24.102Z,97566.41
2019-01-16T11:44:22.979Z,97549.73
2019-01-16T11:46:31.397Z,97552.67
2019-01-16T11:48:20.395Z,97554.45
2019-01-16T11:50:14.407Z,97549.84
2019-01-16T11:52:10.975Z,97547.88
2019-01-16T11:54:04.050Z,97553.68
2019-01-16T11:56:04.360Z,97548.78
2019-01-16T11:58:10.511Z,97542.61
2019-01-16T11:59:54.281Z,97544.94
2019-01-16T12:01:44.256Z,97542.23
2019-01-16T12:03:46.643Z,97546.86
2019-01-16T12:05:38.937Z,97544.13
2019-01-16T12:07:46.584Z,97534.30
2019-01-16T12:09:57.363Z,97544.56
2019-01-16T12:11:55.325Z,97527.18
2019-01-16T12:14:08.294Z,97531.44
2019-01-16T12:16:15.478Z,97530.89
2019-01-16T12:18:21.992Z,97534.95
2019-01-16T12:20:19.248Z,97535.69
2019-01-16T12:22:14.028Z,97537.45
2019-01-16T12:24:09.139Z,97536.88
2019-01-16T12:26:19.323Z,97545.17
2019-01-16T12:28:20.704Z,97542.50
2019-01-16T12:30:16.665Z,97536.09
2019-01-16T12:32:20.384Z,97536.84
2019-01-16T12:34:08.351Z,97551.59
2019-01-16T12:36:00.888Z,97557.26
2019-01-16T12:38:08.786Z,97562.28
2019-01-16T12:39:53.566Z,97568.64
2019-01-16T12:41:59.721Z,97558.81
2019-01-16T12:43:52.515Z,97552.02
2019-01-16T12:45:39.011Z,97545.07
2019-01-16T12:47:32.037Z,97550.10
2019-01-16T12:49:42.147Z,97562.49
2019-01-16T12:51:57.941Z,97562.52
2019-01-16T12:53:55.223Z,97561.95
2019-01-16T12:55:49.109Z,97552.29
2019-01-16T12:57:43.335Z,97560.33
2019-01-16T12:59:58.573Z,97560.33
2019-01-16T13:01:51.840Z,97563.61
2019-01-16T13:03:50.038Z,97568.47
2019-01-16T13:05:43.998Z,97566.04
2019-01-16T13:07:37.131Z,97563.54
2019-01-16T13:09:32.631Z,97576.09
2019-01-16T13:11:38.454Z,97577.91
2019-01-16T13:13:49.651Z,97587.94
2019-01-16T13:15:58.876Z,97579.27
2019-01-16T13:17:52.836Z,97581.02
2019-01-16T13:20:05.157Z,97574.06
2019-01-16T13:22:03.128Z,97585.23
2019-01-16T13:23:59.451Z,97579.91
2019-01-16T13:25:59.477Z,97587.84
2019-01-16T13:28:02.214Z,97587.81
2019-01-16T13:29:59.307Z,97601.64
2019-01-16T13:31:54.863Z,97610.39
2019-01-16T13:33:52.853Z,97609.45
2019-01-16T13:35:51.818Z,97604.41
2019-01-16T13:38:05.192Z,97619.15
2019-01-16T13:40:01.350Z,97622.48
2019-01-16T13:41:58.103Z,97610.06
2019-01-16T13:43:58.496Z,97629.78
2019-01-16T13:45:50.929Z,97640.18
2019-01-16T13:47:44.290Z,97641.94
2019-01-16T13:49:30.402Z,97659.70
2019-01-16T13:51:25.638Z,97663.51
2019-01-16T13:53:18.208Z,97680.58
2019-01-16T13:55:28.050Z,97674.96
2019-01-16T13:57:37.309Z,97686.55
2019-01-16T13:59:35.093Z,97693.72
2019-01-16T14:01:29.894Z,97695.22
2019-01-16T14:03:14.058Z,97708.04
2019-01-16T14:05:01.443Z,97708.78
2019-01-16T14:07:06.866Z,97700.83
2019-01-16T14:09:01.005Z,97706.80
2019-01-16T14:11:05.087Z,97712.78
2019-01-16T14:12:51.099Z,97724.73
2019-01-16T14:15:21.724Z,97728.59
2019-01-16T14:17:19.730Z,97752.52
2019-01-16T14:19:13.413Z,97755.61
2019-01-16T14:21:09.403Z,97790.91
2019-01-16T14:23:06.440Z,97832.21
2019-01-16T14:24:58.375Z,97902.08
2019-01-16T14:27:06.448Z,100377.56
2019-01-16T14:28:59.301Z,100552.13
2019-01-16T14:30:56.585Z,100641.89
2019-01-16T14:33:01.128Z,100704.08
2019-01-16T14:35:07.684Z,100773.64
2019-01-16T14:37:09.866Z,100811.16
2019-01-16T14:39:12.590Z,100849.49
2019-01-16T14:41:14.305Z,100878.98
2019-01-16T14:43:10.379Z,100896.91
2019-01-16T14:45:04.559Z,100915.58
2019-01-16T14:46:58.262Z,100932.41
2019-01-16T14:49:05.026Z,100944.05
2019-01-16T14:51:14.945Z,100965.11
2019-01-16T14:53:13.289Z,100962.49
2019-01-16T14:55:24.213Z,100976.90
2019-01-16T14:57:25.327Z,100990.75
2019-01-16T14:59:21.442Z,100992.88
2019-01-16T15:01:23.202Z,101006.95
2019-01-16T15:03:15.859Z,101008.58
2019-01-16T15:05:10.206Z,101012.94
2019-01-16T15:07:01.404Z,101027.78
2019-01-16T15:08:55.683Z,101027.27
2019-01-16T15:10:59.593Z,101021.34
2019-01-16T15:13:03.332Z,101037.50
2019-01-16T15:15:13.845Z,101030.75
2019-01-16T15:17:13.301Z,101043.45
2019-01-16T15:19:22.302Z,101043.50
2019-01-16T15:21:26.421Z,101049.14
2019-01-16T15:23:17.865Z,101050.78
2019-01-16T15:25:07.392Z,101050.87
2019-01-16T15:27:19.506Z,101050.09
2019-01-16T15:29:22.388Z,101066.79
2019-01-16T15:31:15.647Z,101059.55
2019-01-16T15:33:11.571Z,101049.63
2019-01-16T15:34:54.509Z,101053.42
2019-01-16T15:36:54.306Z,101053.44
2019-01-16T15:39:09.683Z,101066.67
2019-01-16T15:41:05.809Z,101066.67
2019-01-16T15:43:03.451Z,101060.23
2019-01-16T15:45:18.250Z,101061.40
2019-01-16T15:47:12.522Z,101051.44
2019-01-16T15:49:14.578Z,101040.94
2019-01-16T15:51:07.086Z,101030.23
2019-01-16T15:53:14.282Z,101025.41
2019-01-16T15:55:11.555Z,101030.05
2019-01-16T15:57:07.694Z,101017.67
2019-01-16T15:59:00.113Z,101014.47
2019-01-16T16:00:58.292Z,101009.66
2019-01-16T16:02:56.270Z,101000.81
2019-01-16T16:04:49.376Z,100994.69
2019-01-16T16:06:58.441Z,100991.19
2019-01-16T16:08:55.025Z,100975.57
2019-01-16T16:10:49.379Z,100980.20
2019-01-16T16:12:50.318Z,100973.48
2019-01-16T16:14:47.108Z,100960.83
2019-01-16T16:16:40.507Z,100964.04
2019-01-16T16:18:37.383Z,100955.44
2019-01-16T16:20:33.912Z,100948.97
2019-01-16T16:22:39.408Z,100961.64
2019-01-16T16:24:40.698Z,100960.53
2019-01-16T16:26:34.607Z,100951.13
2019-01-16T16:28:58.294Z,100964.58
2019-01-16T16:30:54.489Z,100967.02
2019-01-16T16:33:09.177Z,100944.73
2019-01-16T16:35:07.002Z,100938.80
2019-01-16T16:37:15.005Z,100925.59
2019-01-16T16:39:30.766Z,100933.92
2019-01-16T16:41:27.085Z,100925.03
2019-01-16T16:43:31.657Z,100915.63
2019-01-16T16:45:44.186Z,100920.20
2019-01-16T16:47:44.234Z,100908.61
2019-01-16T16:49:53.223Z,100906.73
2019-01-16T16:51:52.222Z,100894.68
2019-01-16T16:53:49.097Z,100894.39
2019-01-16T16:55:42.973Z,100899.25
2019-01-16T16:57:57.291Z,100899.23
2019-01-16T16:59:50.789Z,100900.03
2019-01-16T17:01:50.768Z,100892.23
2019-01-16T17:03:53.167Z,100887.66
2019-01-16T17:06:00.348Z,100887.64
2019-01-16T17:08:02.783Z,100896.27
2019-01-16T17:10:00.099Z,100873.92
2019-01-16T17:12:01.406Z,100894.12
2019-01-16T17:14:06.681Z,100893.58
2019-01-16T17:16:18.875Z,100887.39
2019-01-16T17:18:07.855Z,100887.11
2019-01-16T17:20:19.252Z,100877.94
2019-01-16T17:22:22.721Z,100878.76
2019-01-16T17:24:18.335Z,100875.78
2019-01-16T17:26:29.269Z,100885.75
2019-01-16T17:28:31.010Z,100888.98
2019-01-16T17:30:29.559Z,100887.90
2019-01-16T17:32:25.617Z,100880.63
2019-01-16T17:34:42.444Z,100864.75
2019-01-16T17:36:47.066Z,100866.38
2019-01-16T17:38:40.914Z,100855.01
2019-01-16T17:40:34.808Z,100856.64
2019-01-16T17:42:40.089Z,100859.88
2019-01-16T17:44:31.538Z,100872.80
2019-01-16T17:46:45.051Z,100878.66
2019-01-16T17:48:55.470Z,100889.95
2019-01-16T17:51:05.627Z,100885.00
2019-01-16T17:53:07.172Z,100880.13
2019-01-16T17:55:12.702Z,100891.64
2019-01-16T17:57:12.082Z,100896.47
2019-01-16T17:59:12.220Z,100897.53
2019-01-16T18:01:05.366Z,100906.14
2019-01-16T18:03:13.504Z,100912.55
2019-01-16T18:05:21.563Z,100923.04
2019-01-16T18:07:35.783Z,100923.82
2019-01-16T18:09:49.118Z,100914.92
2019-01-16T18:11:43.247Z,100920.24
2019-01-16T18:13:43.213Z,100926.69
2019-01-16T18:15:38.119Z,100919.41
2019-01-16T18:17:46.857Z,100914.02
2019-01-16T18:19:55.383Z,100920.24
2019-01-16T18:21:57.711Z,100909.70
2019-01-16T18:23:54.892Z,100906.20
2019-01-16T18:25:58.798Z,100909.16
2019-01-16T18:27:59.415Z,100909.97
2019-01-16T18:30:19.255Z,100896.98
2019-01-16T18:32:23.458Z,100910.70
2019-01-16T18:34:32.273Z,100900.21
2019-01-16T18:36:42.841Z,100889.95
2019-01-16T18:38:40.853Z,100872.13
2019-01-16T18:40:36.884Z,100859.81
2019-01-16T18:42:41.205Z,100870.09
2019-01-16T18:44:41.695Z,100865.27
2019-01-16T18:46:39.954Z,100852.10
2019-01-16T18:48:49.033Z,100840.86
2019-01-16T18:50:52.164Z,100842.23
2019-01-16T18:53:10.988Z,100822.88
2019-01-16T18:55:03.520Z,100809.72
2019-01-16T18:57:11.870Z,100795.97
2019-01-16T18:59:15.506Z,100798.43
2019-01-16T19:01:13.297Z,100785.84
2019-01-16T19:03:37.346Z,100784.23
2019-01-16T19:05:33.954Z,100784.27
2019-01-16T19:07:32.222Z,100758.44
2019-01-16T19:09:33.306Z,100754.69
2019-01-16T19:11:31.024Z,100760.89
2019-01-16T19:13:55.023Z,100748.23
2019-01-16T19:16:09.407Z,100731.80
2019-01-16T19:18:04.368Z,100712.47
2019-01-16T19:20:07.406Z,100715.17
2019-01-16T19:22:14.077Z,100720.89
2019-01-16T19:24:08.334Z,100709.64
2019-01-16T19:26:14.905Z,100701.30
2019-01-16T19:28:02.638Z,100695.93
2019-01-16T19:29:59.723Z,100681.10
2019-01-16T19:32:04.202Z,100679.49
2019-01-16T19:34:03.473Z,100683.80
2019-01-16T19:35:54.917Z,100684.36
2019-01-16T19:37:49.398Z,100670.94
2019-01-16T19:39:42.223Z,100666.66
2019-01-16T19:41:42.351Z,100665.88
2019-01-16T19:43:46.221Z,100672.09
2019-01-16T19:45:50.222Z,100665.33
2019-01-16T19:48:20.237Z,100671.19
2019-01-16T19:50:15.870Z,100648.25
2019-01-16T19:52:14.275Z,100620.19
2019-01-16T19:54:19.418Z,100626.38
2019-01-16T19:56:40.924Z,100645.48
2019-01-16T19:58:51.753Z,100648.67
2019-01-16T20:00:54.172Z,100640.27
2019-01-16T20:03:02.058Z,100657.48
2019-01-16T20:05:12.377Z,100664.73
2019-01-16T20:07:13.535Z,100666.81
2019-01-16T20:09:21.304Z,100665.98
2019-01-16T20:11:22.780Z,100655.22
2019-01-16T20:13:19.703Z,100664.26
2019-01-16T20:15:30.214Z,100662.62
2019-01-16T20:17:34.828Z,100664.46
2019-01-16T20:19:40.808Z,100675.22
2019-01-16T20:21:46.081Z,100669.31
2019-01-16T20:23:58.554Z,100662.52
2019-01-16T20:25:48.759Z,100656.56
2019-01-16T20:27:55.838Z,100644.97
2019-01-16T20:29:49.325Z,100663.52
2019-01-16T20:31:47.003Z,100650.83
2019-01-16T20:33:44.785Z,100659.44
2019-01-16T20:35:37.333Z,100660.23
2019-01-16T20:37:34.054Z,100650.22
2019-01-16T20:39:32.726Z,100645.08
2019-01-16T20:41:48.077Z,100650.93
2019-01-16T20:43:48.711Z,100638.05
2019-01-16T20:45:52.674Z,100631.33
2019-01-16T20:48:03.476Z,100629.95
2019-01-16T20:50:02.528Z,100618.30
2019-01-16T20:52:02.266Z,100615.05
2019-01-16T20:54:01.076Z,100610.97
2019-01-16T20:55:57.286Z,100606.09
2019-01-16T20:58:01.280Z,100601.48
2019-01-16T21:00:23.472Z,100611.19
2019-01-16T21:02:24.588Z,100612.41
2019-01-16T21:04:52.782Z,100598.91
2019-01-16T21:06:47.865Z,100603.25
2019-01-16T21:08:49.732Z,100585.16
2019-01-16T21:11:03.968Z,100585.93
2019-01-16T21:12:58.109Z,100581.08
2019-01-16T21:15:03.663Z,100588.89
2019-01-16T21:16:58.143Z,100586.95
2019-01-16T21:18:54.506Z,100581.81
2019-01-16T21:20:46.307Z,100578.31
2019-01-16T21:22:49.594Z,100560.41
2019-01-16T21:24:51.178Z,100551.28
2019-01-16T21:26:46.467Z,100542.86
2019-01-16T21:28:48.216Z,100537.97
2019-01-16T21:30:41.857Z,100532.02
2019-01-16T21:32:42.419Z,100543.03
2019-01-16T21:34:46.879Z,100534.98
2019-01-16T21:36:33.822Z,100522.06
2019-01-16T21:38:30.728Z,100507.44
2019-01-16T21:40:44.291Z,100511.41
2019-01-16T21:42:37.965Z,100502.00
2019-01-16T21:44:37.893Z,100487.44
2019-01-16T21:46:41.381Z,100497.66
2019-01-16T21:48:37.217Z,100484.99
2019-01-16T21:50:37.765Z,100481.45
2019-01-16T21:52:44.567Z,100474.66
2019-01-16T21:54:31.734Z,100460.41
2019-01-16T21:56:31.209Z,100462.27
2019-01-16T21:58:39.025Z,100474.11
2019-01-16T22:00:56.403Z,100452.30
2019-01-16T22:03:13.550Z,100437.13
2019-01-16T22:05:19.393Z,100416.95
2019-01-16T22:07:36.777Z,100411.22
2019-01-16T22:09:35.568Z,100396.71
2019-01-16T22:11:31.508Z,100411.69
2019-01-16T22:13:28.620Z,100408.69
2019-01-16T22:15:42.676Z,100406.50
2019-01-16T22:17:37.333Z,100374.56
2019-01-16T22:19:48.034Z,100379.16
2019-01-16T22:22:00.838Z,100379.92
2019-01-16T22:24:00.708Z,100358.91
2019-01-16T22:25:56.782Z,100365.63
2019-01-16T22:30:34.684Z,100366.92
2019-01-16T22:32:34.726Z,100331.08
2019-01-16T22:34:31.579Z,100338.42
2019-01-16T22:36:23.755Z,100335.17
2019-01-16T22:38:15.536Z,100321.13
2019-01-16T22:40:17.839Z,100323.83
2019-01-16T22:42:13.151Z,100333.82
2019-01-16T22:44:03.087Z,100319.82
2019-01-16T22:46:10.601Z,100311.27
2019-01-16T22:48:08.219Z,100308.35
2019-01-16T22:50:09.874Z,100294.61
2019-01-16T22:52:23.912Z,100288.11
2019-01-16T22:54:22.918Z,100285.95
2019-01-16T22:56:23.666Z,100278.66
2019-01-16T22:58:31.006Z,100280.06
2019-01-16T23:00:35.888Z,100272.02
2019-01-16T23:02:38.339Z,100267.71
2019-01-16T23:04:29.420Z,100257.22
2019-01-16T23:06:27.666Z,100260.91
2019-01-16T23:08:16.498Z,100263.11
2019-01-16T23:10:06.368Z,100254.22